createdAt,value
2019-02-24T00:01:29.153Z,18.40
2019-02-24T00:03:58.193Z,18.63
2019-02-24T00:06:26.921Z,20.37
2019-02-24T00:08:55.695Z,17.73
2019-02-24T00:11:24.473Z,19.27
2019-02-24T00:13:53.129Z,16.00
2019-02-24T00:16:22.033Z,21.93
2019-02-24T00:18:50.774Z,16.53
2019-02-24T00:21:19.434Z,20.33
2019-02-24T00:23:48.362Z,18.37
2019-02-24T00:26:17.621Z,17.10
2019-02-24T00:28:46.497Z,24.10
2019-02-24T00:31:15.247Z,16.90
2019-02-24T00:33:43.992Z,15.17
2019-02-24T00:36:12.807Z,20.03
2019-02-24T00:38:41.462Z,19.73
2019-02-24T00:41:10.711Z,18.03
2019-02-24T00:43:39.633Z,21.87
2019-02-24T00:46:08.786Z,19.05
2019-02-24T00:48:37.926Z,18.70
2019-02-24T00:51:06.606Z,21.47
2019-02-24T00:53:35.802Z,20.00
2019-02-24T00:56:04.778Z,18.67
2019-02-24T00:58:33.456Z,17.90
2019-02-24T01:01:02.128Z,16.90
2019-02-24T01:03:30.827Z,21.50
2019-02-24T01:05:59.569Z,19.23
2019-02-24T01:08:28.715Z,20.13
2019-02-24T01:10:57.794Z,17.57
2019-02-24T01:13:26.713Z,15.00
2019-02-24T01:15:55.389Z,16.53
2019-02-24T01:18:24.717Z,21.60
2019-02-24T01:20:53.841Z,16.00
2019-02-24T01:23:23.390Z,14.83
2019-02-24T01:25:52.133Z,18.70
2019-02-24T01:28:25.300Z,13.97
2019-02-24T01:30:51.423Z,23.03
2019-02-24T01:33:20.849Z,17.97
2019-02-24T01:35:49.874Z,26.03
2019-02-24T01:38:19.192Z,19.63
2019-02-24T01:40:48.274Z,18.63
2019-02-24T01:43:17.099Z,18.40
2019-02-24T01:45:46.111Z,23.87
2019-02-24T01:48:14.876Z,25.23
2019-02-24T01:50:43.790Z,13.57
2019-02-24T01:53:12.501Z,16.47
2019-02-24T01:55:41.689Z,15.47
2019-02-24T01:58:10.377Z,14.53
2019-02-24T02:00:40.235Z,22.40
2019-02-24T02:03:09.233Z,15.07
2019-02-24T02:05:37.913Z,20.63
2019-02-24T02:08:06.613Z,18.03
2019-02-24T02:10:35.938Z,15.83
2019-02-24T02:13:04.592Z,21.77
2019-02-24T02:15:33.506Z,18.27
2019-02-24T02:18:02.507Z,14.30
2019-02-24T02:20:31.407Z,19.43
2019-02-24T02:23:00.087Z,18.77
2019-02-24T02:25:29.347Z,13.20
2019-02-24T02:27:58.273Z,12.80
2019-02-24T02:30:27.174Z,17.03
2019-02-24T02:32:55.956Z,15.03
2019-02-24T02:35:24.622Z,23.30
2019-02-24T02:37:53.298Z,15.97
2019-02-24T02:40:22.024Z,16.93
2019-02-24T02:42:50.687Z,22.90
2019-02-24T02:45:19.357Z,12.77
2019-02-24T02:47:48.358Z,10.80
2019-02-24T02:50:17.001Z,20.80
2019-02-24T02:52:45.929Z,16.73
2019-02-24T02:55:14.772Z,16.77
2019-02-24T02:57:43.562Z,15.47
2019-02-24T03:00:27.506Z,16.47
2019-02-24T03:02:57.107Z,18.53
2019-02-24T03:05:25.872Z,17.80
2019-02-24T03:07:59.326Z,16.03
2019-02-24T03:10:28.007Z,20.73
2019-02-24T03:12:56.926Z,14.67
2019-02-24T03:15:25.950Z,16.48
2019-02-24T03:17:55.113Z,17.17
2019-02-24T03:20:23.762Z,17.80
2019-02-24T03:22:52.513Z,17.40
2019-02-24T03:25:21.165Z,17.37
2019-02-24T03:27:49.841Z,17.83
2019-02-24T03:30:18.561Z,16.57
2019-02-24T03:32:47.467Z,16.40
2019-02-24T03:35:16.121Z,12.30
2019-02-24T03:37:45.053Z,18.03
2019-02-24T03:40:13.726Z,18.17
2019-02-24T03:42:42.407Z,24.83
2019-02-24T03:45:11.493Z,14.50
2019-02-24T03:47:40.194Z,12.87
2019-02-24T03:50:08.948Z,13.63
2019-02-24T03:52:37.768Z,11.03
2019-02-24T03:55:06.603Z,21.50
2019-02-24T03:57:35.436Z,18.10
2019-02-24T04:00:04.487Z,16.70
2019-02-24T04:02:33.166Z,11.17
2019-02-24T04:05:01.910Z,13.17
2019-02-24T04:07:30.912Z,14.07
2019-02-24T04:09:59.924Z,17.00
2019-02-24T04:12:28.803Z,16.83
2019-02-24T04:14:57.804Z,14.07
2019-02-24T04:17:28.831Z,12.77
2019-02-24T04:19:57.731Z,16.03
2019-02-24T04:22:26.775Z,14.83
2019-02-24T04:24:56.010Z,15.83
2019-02-24T04:27:24.921Z,13.13
2019-02-24T04:29:53.704Z,16.23
2019-02-24T04:32:22.346Z,12.90
2019-02-24T04:34:51.010Z,13.80
2019-02-24T04:37:19.800Z,17.70
2019-02-24T04:39:48.674Z,15.63
2019-02-24T04:42:17.369Z,13.13
2019-02-24T04:44:46.079Z,18.20
2019-02-24T04:47:14.752Z,11.67
2019-02-24T04:49:43.443Z,16.87
2019-02-24T04:52:12.255Z,13.87
2019-02-24T04:54:40.986Z,14.93
2019-02-24T04:57:10.370Z,12.50
2019-02-24T04:59:39.102Z,14.83
2019-02-24T05:02:08.737Z,21.37
2019-02-24T05:04:38.392Z,14.93
2019-02-24T05:07:07.657Z,16.83
2019-02-24T05:09:36.365Z,11.20
2019-02-24T05:12:05.136Z,21.47
2019-02-24T05:14:34.178Z,16.67
2019-02-24T05:17:02.861Z,16.47
2019-02-24T05:19:31.813Z,17.33
2019-02-24T05:22:00.800Z,12.60
2019-02-24T05:24:29.731Z,13.93
2019-02-24T05:26:58.655Z,10.93
2019-02-24T05:29:28.398Z,18.30
2019-02-24T05:31:58.143Z,15.07
2019-02-24T05:34:27.605Z,19.47
2019-02-24T05:36:56.808Z,14.23
2019-02-24T05:39:25.823Z,17.03
2019-02-24T05:41:54.478Z,18.47
2019-02-24T05:44:23.289Z,15.80
2019-02-24T05:46:51.944Z,17.50
2019-02-24T05:49:20.602Z,16.70
2019-02-24T05:51:49.352Z,21.27
2019-02-24T05:54:18.295Z,21.57
2019-02-24T05:56:46.957Z,13.90
2019-02-24T05:59:15.982Z,22.97
2019-02-24T06:01:44.683Z,14.23
2019-02-24T06:04:13.724Z,19.32
2019-02-24T06:06:43.006Z,16.43
2019-02-24T06:09:12.157Z,19.63
2019-02-24T06:11:40.825Z,15.63
2019-02-24T06:14:09.530Z,11.60
2019-02-24T06:16:38.434Z,19.80
2019-02-24T06:19:07.128Z,17.37
2019-02-24T06:21:35.909Z,14.07
2019-02-24T06:24:04.893Z,14.27
2019-02-24T06:26:33.936Z,20.93
2019-02-24T06:29:02.699Z,12.43
2019-02-24T06:31:34.287Z,15.77
2019-02-24T06:34:02.993Z,16.63
2019-02-24T06:36:32.311Z,17.43
2019-02-24T06:39:01.223Z,16.33
2019-02-24T06:41:30.048Z,14.23
2019-02-24T06:43:59.451Z,16.20
2019-02-24T06:46:31.076Z,16.50
2019-02-24T06:49:00.038Z,14.30
2019-02-24T06:51:29.135Z,15.50
2019-02-24T06:53:57.830Z,15.67
2019-02-24T06:56:26.665Z,17.47
2019-02-24T06:58:55.926Z,14.40
2019-02-24T07:01:25.006Z,21.60
2019-02-24T07:03:54.635Z,15.17
2019-02-24T07:06:24.386Z,14.63
2019-02-24T07:08:53.110Z,16.27
2019-02-24T07:11:26.848Z,15.60
2019-02-24T07:13:55.881Z,11.23
2019-02-24T07:16:27.389Z,18.07
2019-02-24T07:18:56.598Z,17.63
2019-02-24T07:21:25.349Z,17.03
2019-02-24T07:23:54.497Z,15.20
2019-02-24T07:26:23.652Z,26.27
2019-02-24T07:28:54.277Z,20.70
2019-02-24T07:31:23.245Z,15.40
2019-02-24T07:33:52.164Z,16.93
2019-02-24T07:36:21.160Z,13.00
2019-02-24T07:38:49.901Z,15.53
2019-02-24T07:41:18.634Z,13.77
2019-02-24T07:43:47.969Z,19.20
2019-02-24T07:46:16.665Z,15.67
2019-02-24T07:48:45.448Z,15.57
2019-02-24T07:51:14.587Z,13.50
2019-02-24T07:53:43.250Z,15.00
2019-02-24T07:56:12.162Z,17.57
2019-02-24T07:58:41.171Z,16.30
2019-02-24T08:01:09.858Z,16.37
2019-02-24T08:03:38.721Z,13.73
2019-02-24T08:06:10.095Z,15.67
2019-02-24T08:08:38.973Z,18.03
2019-02-24T08:11:07.673Z,14.30
2019-02-24T08:13:36.474Z,13.77
2019-02-24T08:16:05.193Z,11.73
2019-02-24T08:18:34.025Z,14.37
2019-02-24T08:21:03.338Z,15.93
2019-02-24T08:23:32.172Z,15.13
2019-02-24T08:26:00.898Z,9.47
2019-02-24T08:28:29.876Z,12.47
2019-02-24T08:30:58.862Z,13.93
2019-02-24T08:33:27.854Z,20.13
2019-02-24T08:35:56.853Z,14.77
2019-02-24T08:38:25.687Z,14.37
2019-02-24T08:40:55.079Z,11.87
2019-02-24T08:43:26.395Z,17.37
2019-02-24T08:45:55.067Z,14.47
2019-02-24T08:48:23.738Z,16.00
2019-02-24T08:50:52.544Z,17.93
2019-02-24T08:53:21.213Z,16.80
2019-02-24T08:55:51.568Z,17.50
2019-02-24T08:58:21.835Z,13.70
2019-02-24T09:00:51.378Z,15.78
2019-02-24T09:03:20.186Z,13.70
2019-02-24T09:05:49.190Z,18.77
2019-02-24T09:08:18.055Z,15.28
2019-02-24T09:10:47.017Z,13.90
2019-02-24T09:13:15.990Z,14.30
2019-02-24T09:15:44.656Z,20.30
2019-02-24T09:18:13.479Z,13.28
2019-02-24T09:20:42.507Z,13.93
2019-02-24T09:23:11.232Z,16.12
2019-02-24T09:25:39.946Z,14.53
2019-02-24T09:28:08.759Z,17.00
2019-02-24T09:30:37.486Z,13.83
2019-02-24T09:33:06.154Z,21.00
2019-02-24T09:35:35.578Z,14.50
2019-02-24T09:38:04.494Z,13.30
2019-02-24T09:40:33.470Z,15.85
2019-02-24T09:43:02.461Z,15.50
2019-02-24T09:45:32.403Z,15.15
2019-02-24T09:48:01.310Z,16.77
2019-02-24T09:50:30.039Z,15.72
2019-02-24T09:52:58.743Z,15.95
2019-02-24T09:55:27.630Z,13.50
2019-02-24T09:57:56.898Z,15.72
2019-02-24T10:00:25.845Z,13.05
2019-02-24T10:02:54.526Z,14.03
2019-02-24T10:05:23.597Z,16.27
2019-02-24T10:07:52.268Z,22.90
2019-02-24T10:10:20.955Z,14.25
2019-02-24T10:12:49.946Z,12.05
2019-02-24T10:15:18.874Z,15.63
2019-02-24T10:17:47.551Z,14.00
2019-02-24T10:20:16.709Z,17.87
2019-02-24T10:22:45.437Z,16.05
2019-02-24T10:25:14.094Z,15.55
2019-02-24T10:27:42.998Z,13.98
2019-02-24T10:30:11.873Z,14.43
2019-02-24T10:32:40.764Z,16.62
2019-02-24T10:35:10.001Z,13.20
2019-02-24T10:37:38.765Z,11.97
2019-02-24T10:40:09.387Z,12.78
2019-02-24T10:42:38.658Z,15.05
2019-02-24T10:45:09.509Z,13.57
2019-02-24T10:47:38.443Z,15.28
2019-02-24T10:50:10.101Z,12.00
2019-02-24T10:52:39.229Z,15.70
2019-02-24T10:55:08.116Z,10.78
2019-02-24T10:57:36.909Z,10.45
2019-02-24T11:00:07.454Z,11.85
2019-02-24T11:02:36.418Z,9.63
2019-02-24T11:05:05.731Z,16.23
2019-02-24T11:07:34.973Z,14.28
2019-02-24T11:10:04.195Z,10.75
2019-02-24T11:12:32.929Z,11.30
2019-02-24T11:15:02.876Z,11.68
2019-02-24T11:17:31.570Z,11.95
2019-02-24T11:20:00.577Z,12.65
2019-02-24T11:22:29.364Z,11.27
2019-02-24T11:24:58.045Z,10.53
2019-02-24T11:27:26.851Z,10.90
2019-02-24T11:29:55.897Z,8.98
2019-02-24T11:32:24.653Z,11.85
2019-02-24T11:34:53.678Z,10.88
2019-02-24T11:37:22.355Z,9.80
2019-02-24T11:39:51.050Z,8.60
2019-02-24T11:42:19.753Z,9.03
2019-02-24T11:44:48.751Z,13.18
2019-02-24T11:47:17.429Z,8.10
2019-02-24T11:49:46.489Z,10.72
2019-02-24T11:52:15.437Z,9.00
2019-02-24T11:54:44.370Z,12.13
2019-02-24T11:57:14.104Z,8.53
2019-02-24T11:59:43.096Z,8.40
2019-02-24T12:02:11.781Z,6.50
2019-02-24T12:04:40.748Z,6.95
2019-02-24T12:07:09.456Z,8.18
2019-02-24T12:09:38.168Z,6.03
2019-02-24T12:12:06.897Z,8.40
2019-02-24T12:14:35.949Z,7.33
2019-02-24T12:17:05.929Z,6.50
2019-02-24T12:19:34.970Z,7.20
2019-02-24T12:22:03.665Z,8.45
2019-02-24T12:24:32.773Z,9.30
2019-02-24T12:27:01.775Z,9.93
2019-02-24T12:29:30.421Z,6.10
2019-02-24T12:31:59.080Z,5.92
2019-02-24T12:34:27.776Z,5.53
2019-02-24T12:36:56.486Z,7.90
2019-02-24T12:39:25.606Z,5.58
2019-02-24T12:41:54.645Z,5.97
2019-02-24T12:44:23.533Z,4.42
2019-02-24T12:46:52.218Z,4.60
2019-02-24T12:49:21.180Z,4.35
2019-02-24T12:51:50.126Z,4.60
2019-02-24T12:54:19.079Z,3.54
2019-02-24T12:56:48.418Z,5.60
2019-02-24T12:59:17.319Z,5.83
2019-02-24T13:01:46.244Z,4.80
2019-02-24T13:04:15.578Z,12.47
2019-02-24T13:06:44.722Z,5.83
2019-02-24T13:09:13.597Z,7.10
2019-02-24T13:11:42.705Z,5.80
2019-02-24T13:14:11.394Z,4.30
2019-02-24T13:16:40.663Z,3.80
2019-02-24T13:19:09.609Z,5.80
2019-02-24T13:21:39.473Z,9.68
2019-02-24T13:24:08.699Z,4.58
2019-02-24T13:26:37.386Z,7.85
2019-02-24T13:29:06.054Z,8.98
2019-02-24T13:31:35.642Z,7.17
2019-02-24T13:34:04.311Z,8.20
2019-02-24T13:36:33.033Z,7.20
2019-02-24T13:39:02.268Z,5.70
2019-02-24T13:41:32.841Z,8.20
2019-02-24T13:44:01.501Z,7.65
2019-02-24T13:46:30.300Z,5.80
2019-02-24T13:48:59.306Z,6.28
2019-02-24T13:51:28.125Z,7.87
2019-02-24T13:53:56.797Z,6.25
2019-02-24T13:56:25.537Z,7.25
2019-02-24T13:58:54.264Z,4.93
2019-02-24T14:01:23.314Z,4.05
2019-02-24T14:03:51.984Z,5.08
2019-02-24T14:06:20.962Z,6.57
2019-02-24T14:08:49.673Z,7.15
2019-02-24T14:11:18.987Z,3.77
2019-02-24T14:13:47.924Z,8.28
2019-02-24T14:16:20.593Z,6.75
2019-02-24T14:18:50.062Z,6.63
2019-02-24T14:21:19.954Z,7.00
2019-02-24T14:23:48.986Z,7.23
2019-02-24T14:26:19.682Z,9.43
2019-02-24T14:28:48.472Z,4.87
2019-02-24T14:31:17.181Z,5.30
2019-02-24T14:33:46.069Z,10.73
2019-02-24T14:36:14.830Z,6.30
2019-02-24T14:38:43.850Z,9.13
2019-02-24T14:41:13.070Z,6.42
2019-02-24T14:43:41.821Z,10.85
2019-02-24T14:46:10.694Z,8.00
2019-02-24T14:48:39.977Z,8.90
2019-02-24T14:51:08.797Z,6.57
2019-02-24T14:53:37.993Z,6.87
2019-02-24T14:56:09.478Z,4.80
2019-02-24T14:58:41.475Z,5.95
2019-02-24T15:01:10.494Z,7.22
2019-02-24T15:03:39.879Z,5.37
2019-02-24T15:06:08.557Z,6.63
2019-02-24T15:08:37.346Z,7.20
2019-02-24T15:11:06.061Z,9.27
2019-02-24T15:13:36.160Z,5.90
2019-02-24T15:16:05.330Z,6.33
2019-02-24T15:18:34.249Z,4.73
2019-02-24T15:21:02.921Z,4.50
2019-02-24T15:23:32.690Z,6.17
2019-02-24T15:26:01.654Z,6.37
2019-02-24T15:28:30.549Z,6.60
2019-02-24T15:30:59.461Z,6.42
2019-02-24T15:33:28.389Z,5.43
2019-02-24T15:35:57.073Z,6.73
2019-02-24T15:38:25.854Z,6.50
2019-02-24T15:40:54.529Z,6.90
2019-02-24T15:43:23.440Z,7.23
2019-02-24T15:45:55.537Z,4.80
2019-02-24T15:48:24.987Z,6.20
2019-02-24T15:50:53.813Z,7.23
2019-02-24T15:53:22.736Z,5.87
2019-02-24T15:55:51.661Z,5.07
2019-02-24T15:58:20.310Z,7.73
2019-02-24T16:00:49.098Z,6.43
2019-02-24T16:03:17.759Z,6.50
2019-02-24T16:05:46.484Z,8.37
2019-02-24T16:08:15.217Z,5.37
2019-02-24T16:10:44.101Z,8.33
2019-02-24T16:13:17.083Z,4.20
2019-02-24T16:15:43.268Z,8.53
2019-02-24T16:18:11.945Z,7.30
2019-02-24T16:20:40.609Z,5.83
2019-02-24T16:23:09.883Z,8.57
2019-02-24T16:25:38.731Z,5.77
2019-02-24T16:28:07.809Z,5.97
2019-02-24T16:30:36.878Z,6.33
2019-02-24T16:33:10.629Z,4.97
2019-02-24T16:35:36.231Z,6.30
2019-02-24T16:38:05.106Z,3.57
2019-02-24T16:40:34.116Z,4.42
2019-02-24T16:43:06.066Z,5.00
2019-02-24T16:45:34.982Z,11.17
2019-02-24T16:48:07.310Z,10.07
2019-02-24T16:50:42.243Z,7.73
2019-02-24T16:53:11.157Z,13.37
2019-02-24T16:55:39.834Z,10.37
2019-02-24T16:58:09.138Z,6.80
2019-02-24T17:00:37.880Z,8.43
2019-02-24T17:03:06.985Z,5.63
2019-02-24T17:05:36.052Z,10.13
2019-02-24T17:08:04.738Z,7.50
2019-02-24T17:10:33.422Z,6.27
2019-02-24T17:13:02.285Z,5.77
2019-02-24T17:15:31.190Z,7.57
2019-02-24T17:17:59.887Z,8.07
2019-02-24T17:20:29.004Z,6.00
2019-02-24T17:22:57.818Z,8.47
2019-02-24T17:25:26.911Z,6.37
2019-02-24T17:27:56.238Z,8.90
2019-02-24T17:30:24.927Z,12.20
2019-02-24T17:32:53.801Z,13.37
2019-02-24T17:35:22.948Z,8.10
2019-02-24T17:37:51.695Z,9.07
2019-02-24T17:40:20.526Z,9.20
2019-02-24T17:42:49.580Z,9.83
2019-02-24T17:45:18.614Z,10.47
2019-02-24T17:47:47.359Z,12.70
2019-02-24T17:50:16.458Z,11.90
2019-02-24T17:52:45.633Z,8.43
2019-02-24T17:55:14.671Z,10.70
2019-02-24T17:57:43.550Z,12.17
2019-02-24T18:00:23.478Z,10.53
2019-02-24T18:02:52.805Z,8.27
2019-02-24T18:05:21.674Z,14.27
2019-02-24T18:07:50.510Z,8.13
2019-02-24T18:10:19.664Z,10.30
2019-02-24T18:12:48.973Z,12.27
2019-02-24T18:15:18.069Z,12.17
2019-02-24T18:17:46.867Z,12.90
2019-02-24T18:20:15.665Z,12.40
2019-02-24T18:22:46.095Z,16.97
2019-02-24T18:25:15.909Z,10.53
2019-02-24T18:27:44.744Z,13.83
2019-02-24T18:30:18.844Z,11.27
2019-02-24T18:32:47.512Z,10.63
2019-02-24T18:35:16.523Z,10.63
2019-02-24T18:37:45.349Z,14.43
2019-02-24T18:40:14.322Z,12.77
2019-02-24T18:42:43.148Z,11.17
2019-02-24T18:45:11.994Z,12.97
2019-02-24T18:47:41.234Z,13.03
2019-02-24T18:50:10.785Z,10.68
2019-02-24T18:52:39.746Z,15.47
2019-02-24T18:55:15.834Z,16.37
2019-02-24T18:57:44.601Z,15.87
2019-02-24T19:00:14.222Z,16.50
2019-02-24T19:02:43.631Z,14.53
2019-02-24T19:05:12.376Z,11.63
2019-02-24T19:07:41.044Z,14.13
2019-02-24T19:10:13.464Z,15.73
2019-02-24T19:12:42.235Z,14.10
2019-02-24T19:15:13.026Z,14.73
2019-02-24T19:17:41.843Z,20.43
2019-02-24T19:20:11.655Z,16.80
2019-02-24T19:22:40.570Z,18.40
2019-02-24T19:25:10.075Z,22.17
2019-02-24T19:27:38.749Z,17.97
2019-02-24T19:30:08.989Z,12.33
2019-02-24T19:32:38.237Z,19.10
2019-02-24T19:35:10.934Z,13.57
2019-02-24T19:37:39.718Z,13.27
2019-02-24T19:40:10.610Z,14.13
2019-02-24T19:42:39.545Z,15.33
2019-02-24T19:45:09.030Z,12.80
2019-02-24T19:47:37.775Z,20.57
2019-02-24T19:50:08.706Z,15.17
2019-02-24T19:52:37.398Z,15.13
2019-02-24T19:55:06.791Z,16.37
2019-02-24T19:57:36.020Z,17.77
2019-02-24T20:00:11.890Z,12.20
2019-02-24T20:02:40.747Z,15.37
2019-02-24T20:05:09.750Z,14.53
2019-02-24T20:07:38.793Z,15.27
2019-02-24T20:10:08.342Z,17.70
2019-02-24T20:12:37.086Z,15.40
2019-02-24T20:15:07.213Z,12.10
2019-02-24T20:17:36.049Z,15.27
2019-02-24T20:20:06.030Z,11.05
2019-02-24T20:22:41.224Z,14.70
2019-02-24T20:25:14.905Z,17.90
2019-02-24T20:27:46.418Z,14.23
2019-02-24T20:30:22.926Z,17.30
2019-02-24T20:32:51.618Z,12.47
2019-02-24T20:35:20.507Z,15.63
2019-02-24T20:37:49.297Z,15.53
2019-02-24T20:40:18.795Z,11.17
2019-02-24T20:42:49.411Z,17.53
2019-02-24T20:45:19.330Z,13.03
2019-02-24T20:47:48.192Z,16.63
2019-02-24T20:50:17.999Z,14.53
2019-02-24T20:52:47.312Z,14.67
2019-02-24T20:55:18.809Z,13.73
2019-02-24T20:58:22.163Z,19.00
2019-02-24T21:00:44.624Z,14.40
2019-02-24T21:03:14.207Z,18.47
2019-02-24T21:05:43.018Z,16.53
2019-02-24T21:08:11.870Z,13.53
2019-02-24T21:10:40.881Z,12.57
2019-02-24T21:13:11.872Z,16.10
2019-02-24T21:15:40.331Z,19.00
2019-02-24T21:18:09.340Z,19.47
2019-02-24T21:20:39.932Z,12.77
2019-02-24T21:23:10.176Z,14.10
2019-02-24T21:25:41.860Z,17.40
2019-02-24T21:28:11.375Z,19.37
2019-02-24T21:30:41.289Z,12.97
2019-02-24T21:33:10.128Z,14.43
2019-02-24T21:35:39.052Z,16.53
2019-02-24T21:38:08.137Z,16.00
2019-02-24T21:40:37.319Z,14.20
2019-02-24T21:43:08.365Z,16.97
2019-02-24T21:45:41.676Z,17.57
2019-02-24T21:48:10.926Z,12.90
2019-02-24T21:51:08.005Z,11.37
2019-02-24T21:53:37.021Z,17.43
2019-02-24T21:56:05.758Z,18.97
2019-02-24T21:58:34.412Z,19.83
2019-02-24T22:01:03.108Z,22.13
2019-02-24T22:03:32.029Z,18.50
2019-02-24T22:06:00.932Z,17.77
2019-02-24T22:08:30.188Z,16.57
2019-02-24T22:10:59.339Z,17.37
2019-02-24T22:13:28.011Z,19.60
2019-02-24T22:15:56.757Z,17.13
2019-02-24T22:18:25.431Z,19.77
2019-02-24T22:20:55.084Z,18.80
2019-02-24T22:23:24.542Z,17.13
2019-02-24T22:25:53.493Z,22.57
2019-02-24T22:28:22.190Z,21.80
2019-02-24T22:30:51.218Z,16.50
2019-02-24T22:33:22.508Z,20.40
2019-02-24T22:35:51.264Z,19.87
2019-02-24T22:38:20.086Z,19.27
2019-02-24T22:40:54.434Z,17.40
2019-02-24T22:43:22.261Z,24.87
2019-02-24T22:45:51.335Z,22.80
2019-02-24T22:48:20.082Z,19.77
2019-02-24T22:50:48.765Z,20.70
2019-02-24T22:53:17.484Z,18.87
2019-02-24T22:55:46.385Z,22.00
2019-02-24T22:58:15.037Z,16.63
2019-02-24T23:01:02.486Z,17.77
2019-02-24T23:03:42.619Z,18.60
2019-02-24T23:06:11.542Z,14.47
2019-02-24T23:08:40.202Z,18.23
2019-02-24T23:11:09.218Z,15.17
2019-02-24T23:13:39.387Z,17.27
2019-02-24T23:16:08.436Z,16.67
2019-02-24T23:18:37.405Z,19.50
2019-02-24T23:21:06.203Z,17.40
2019-02-24T23:23:34.949Z,19.33
2019-02-24T23:26:03.907Z,16.50
2019-02-24T23:28:32.570Z,15.00
2019-02-24T23:31:01.242Z,16.43
2019-02-24T23:33:30.129Z,15.77
2019-02-24T23:35:59.136Z,19.03
2019-02-24T23:38:27.865Z,18.40
2019-02-24T23:40:56.737Z,14.77
2019-02-24T23:43:26.094Z,20.73
2019-02-24T23:45:54.991Z,21.13
2019-02-24T23:48:23.653Z,20.03
2019-02-24T23:50:52.394Z,19.90
2019-02-24T23:53:21.052Z,17.20
2019-02-24T23:55:49.736Z,22.67
2019-02-24T23:58:18.613Z,15.27
